createdAt,value
2023-01-10T00:02:25.026Z,72.72
2023-01-10T00:04:54.413Z,72.70
2023-01-10T00:07:23.157Z,73.06
2023-01-10T00:09:51.912Z,73.10
2023-01-10T00:12:39.520Z,72.92
2023-01-10T00:15:09.119Z,72.61
2023-01-10T00:17:37.790Z,72.43
2023-01-10T00:20:07.399Z,72.91
2023-01-10T00:22:36.461Z,73.02
2023-01-10T00:25:06.204Z,72.93
2023-01-10T00:27:35.997Z,73.05
2023-01-10T00:30:14.341Z,73.42
2023-01-10T00:32:45.123Z,73.36
2023-01-10T00:35:14.046Z,73.57
2023-01-10T00:37:42.757Z,73.73
2023-01-10T00:40:13.095Z,73.88
2023-01-10T00:43:00.594Z,74.24
2023-01-10T00:45:29.749Z,74.59
2023-01-10T00:47:58.501Z,75.13
2023-01-10T00:50:27.439Z,75.26
2023-01-10T00:52:56.518Z,75.17
2023-01-10T00:55:26.774Z,75.51
2023-01-10T00:57:56.936Z,75.54
2023-01-10T01:00:27.204Z,75.30
2023-01-10T01:02:57.298Z,74.74
2023-01-10T01:05:26.384Z,74.37
2023-01-10T01:07:55.469Z,74.40
2023-01-10T01:10:27.485Z,74.05
2023-01-10T01:13:05.973Z,74.14
2023-01-10T01:15:36.001Z,73.82
2023-01-10T01:18:05.510Z,74.15
2023-01-10T01:20:35.119Z,74.32
2023-01-10T01:23:04.635Z,74.14
2023-01-10T01:25:33.978Z,74.06
2023-01-10T01:28:03.624Z,73.99
2023-01-10T01:30:32.335Z,74.34
2023-01-10T01:33:01.352Z,74.24
2023-01-10T01:35:30.369Z,74.18
2023-01-10T01:37:59.594Z,74.14
2023-01-10T01:40:28.840Z,74.53
2023-01-10T01:42:57.961Z,74.74
2023-01-10T01:45:35.951Z,75.09
2023-01-10T01:48:39.702Z,74.98
2023-01-10T01:51:16.319Z,75.04
2023-01-10T01:53:53.312Z,75.36
2023-01-10T01:56:29.859Z,75.81
2023-01-10T01:59:10.909Z,75.68
2023-01-10T02:01:42.569Z,75.82
2023-01-10T02:04:18.285Z,75.67
2023-01-10T02:06:50.053Z,76.10
2023-01-10T02:09:41.840Z,76.16
2023-01-10T02:12:12.179Z,75.81
2023-01-10T02:14:42.573Z,75.60
2023-01-10T02:17:12.507Z,75.50
2023-01-10T02:19:47.784Z,75.56
2023-01-10T02:22:44.639Z,75.67
2023-01-10T02:25:35.432Z,75.12
2023-01-10T02:28:15.791Z,75.13
2023-01-10T02:31:02.995Z,75.47
2023-01-10T02:33:40.107Z,75.68
2023-01-10T02:36:29.377Z,75.65
2023-01-10T02:39:22.495Z,75.55
2023-01-10T02:42:04.955Z,75.61
2023-01-10T02:44:45.742Z,76.16
2023-01-10T02:47:15.159Z,76.33
2023-01-10T02:49:49.117Z,76.10
2023-01-10T02:52:28.389Z,76.08
2023-01-10T02:55:04.176Z,76.13
2023-01-10T02:57:49.089Z,76.59
2023-01-10T03:00:28.175Z,76.66
2023-01-10T03:03:02.996Z,76.48
2023-01-10T03:06:20.614Z,75.89
2023-01-10T03:08:55.312Z,75.32
2023-01-10T03:11:41.966Z,75.07
2023-01-10T03:14:25.056Z,75.32
2023-01-10T03:17:00.493Z,75.33
2023-01-10T03:19:35.627Z,75.07
2023-01-10T03:22:09.453Z,75.27
2023-01-10T03:24:42.928Z,75.62
2023-01-10T03:27:28.017Z,75.75
2023-01-10T03:30:22.668Z,75.69
2023-01-10T03:32:51.945Z,74.89
2023-01-10T03:35:23.934Z,74.55
2023-01-10T03:38:05.131Z,74.34
2023-01-10T03:40:40.047Z,74.40
2023-01-10T03:43:41.765Z,74.32
2023-01-10T03:46:24.781Z,74.14
2023-01-10T03:48:56.200Z,74.29
2023-01-10T03:51:28.325Z,74.83
2023-01-10T03:54:01.690Z,75.47
2023-01-10T03:56:31.689Z,75.81
2023-01-10T03:59:01.287Z,75.92
2023-01-10T04:01:30.502Z,76.00
2023-01-10T04:03:59.507Z,76.36
2023-01-10T04:06:28.977Z,76.61
2023-01-10T04:08:57.813Z,76.64
2023-01-10T04:11:26.815Z,76.44
2023-01-10T04:13:55.933Z,76.00
2023-01-10T04:16:24.997Z,75.76
2023-01-10T04:18:53.890Z,75.63
2023-01-10T04:21:23.257Z,74.81
2023-01-10T04:23:52.327Z,74.19
2023-01-10T04:26:21.372Z,74.06
2023-01-10T04:28:50.599Z,74.13
2023-01-10T04:31:19.756Z,74.34
2023-01-10T04:33:48.684Z,74.21
2023-01-10T04:36:17.353Z,74.03
2023-01-10T04:38:46.405Z,74.03
2023-01-10T04:41:15.561Z,73.94
2023-01-10T04:43:44.477Z,74.19
2023-01-10T04:46:13.301Z,74.29
2023-01-10T04:48:42.830Z,74.09
2023-01-10T04:51:12.958Z,74.63
2023-01-10T04:53:42.836Z,74.87
2023-01-10T04:56:18.382Z,75.22
2023-01-10T04:58:48.324Z,74.58
2023-01-10T05:01:26.198Z,74.33
2023-01-10T05:03:56.629Z,74.75
2023-01-10T05:06:25.865Z,75.20
2023-01-10T05:08:54.648Z,75.37
2023-01-10T05:11:24.486Z,75.53
2023-01-10T05:13:53.481Z,75.59
2023-01-10T05:16:22.276Z,75.10
2023-01-10T05:18:51.554Z,74.44
2023-01-10T05:21:20.210Z,74.44
2023-01-10T05:23:49.687Z,74.14
2023-01-10T05:26:23.999Z,74.20
2023-01-10T05:28:52.939Z,74.43
2023-01-10T05:31:21.781Z,74.34
2023-01-10T05:33:52.252Z,74.39
2023-01-10T05:36:21.814Z,74.49
2023-01-10T05:38:50.782Z,75.29
2023-01-10T05:41:19.684Z,75.47
2023-01-10T05:43:48.642Z,75.36
2023-01-10T05:46:17.173Z,75.21
2023-01-10T05:48:45.911Z,75.32
2023-01-10T05:51:15.044Z,75.37
2023-01-10T05:53:44.022Z,75.24
2023-01-10T05:56:12.632Z,75.24
2023-01-10T05:58:41.311Z,75.08
2023-01-10T06:01:10.417Z,74.75
2023-01-10T06:03:39.187Z,74.69
2023-01-10T06:06:08.196Z,74.60
2023-01-10T06:08:37.464Z,74.75
2023-01-10T06:11:06.405Z,74.59
2023-01-10T06:13:35.470Z,74.53
2023-01-10T06:16:04.505Z,74.32
2023-01-10T06:18:33.429Z,74.45
2023-01-10T06:21:02.143Z,74.51
2023-01-10T06:23:31.581Z,74.52
2023-01-10T06:26:00.695Z,74.95
2023-01-10T06:28:29.638Z,75.07
2023-01-10T06:30:58.511Z,74.59
2023-01-10T06:33:27.770Z,74.07
2023-01-10T06:35:56.449Z,73.81
2023-01-10T06:38:25.756Z,73.83
2023-01-10T06:40:55.302Z,74.34
2023-01-10T06:43:26.017Z,74.09
2023-01-10T06:45:55.737Z,74.37
2023-01-10T06:48:24.831Z,74.58
2023-01-10T06:50:54.175Z,74.86
2023-01-10T06:53:23.235Z,75.08
2023-01-10T06:55:52.260Z,75.15
2023-01-10T06:58:21.461Z,74.66
2023-01-10T07:00:51.357Z,74.61
2023-01-10T07:03:20.105Z,75.04
2023-01-10T07:05:49.120Z,74.63
2023-01-10T07:08:18.465Z,74.23
2023-01-10T07:10:47.355Z,73.90
2023-01-10T07:13:16.427Z,74.03
2023-01-10T07:15:45.260Z,74.19
2023-01-10T07:18:14.203Z,74.36
2023-01-10T07:20:43.524Z,74.79
2023-01-10T07:23:13.466Z,74.26
2023-01-10T07:25:42.888Z,74.92
2023-01-10T07:28:11.575Z,73.69
2023-01-10T07:30:40.463Z,69.95
2023-01-10T07:33:09.681Z,67.37
2023-01-10T07:35:40.016Z,66.11
2023-01-10T07:38:09.648Z,64.89
2023-01-10T07:40:39.037Z,65.18
2023-01-10T07:43:08.251Z,65.52
2023-01-10T07:45:37.516Z,66.00
2023-01-10T07:48:06.810Z,66.65
2023-01-10T07:50:37.225Z,66.92
2023-01-10T07:53:08.609Z,66.94
2023-01-10T07:55:40.188Z,67.52
2023-01-10T07:58:09.053Z,64.40
2023-01-10T08:00:38.020Z,59.72
2023-01-10T08:03:07.674Z,55.11
2023-01-10T08:05:37.513Z,51.15
2023-01-10T08:08:09.442Z,48.23
2023-01-10T08:10:41.146Z,45.50
2023-01-10T08:13:18.848Z,43.08
2023-01-10T08:15:50.795Z,40.98
2023-01-10T08:18:21.653Z,38.97
2023-01-10T08:20:54.050Z,37.43
2023-01-10T08:23:23.765Z,36.28
2023-01-10T08:25:53.376Z,35.00
2023-01-10T08:28:23.229Z,33.82
2023-01-10T08:30:55.972Z,33.11
2023-01-10T08:33:25.883Z,32.11
2023-01-10T08:35:55.909Z,30.76
2023-01-10T08:38:25.935Z,30.33
2023-01-10T08:40:58.728Z,29.13
2023-01-10T08:43:28.088Z,28.25
2023-01-10T08:45:57.560Z,27.98
2023-01-10T08:48:26.997Z,27.21
2023-01-10T08:50:56.112Z,26.88
2023-01-10T08:53:27.573Z,26.05
2023-01-10T08:55:56.981Z,25.90
2023-01-10T08:58:27.543Z,25.26
2023-01-10T09:00:57.969Z,24.81
2023-01-10T09:03:27.029Z,24.34
2023-01-10T09:05:55.836Z,23.64
2023-01-10T09:08:25.604Z,23.50
2023-01-10T09:10:54.747Z,23.25
2023-01-10T09:13:23.282Z,22.51
2023-01-10T09:15:53.466Z,22.50
2023-01-10T09:18:24.661Z,22.47
2023-01-10T09:20:55.738Z,22.23
2023-01-10T09:23:26.480Z,21.75
2023-01-10T09:25:58.367Z,21.75
2023-01-10T09:28:28.014Z,21.35
2023-01-10T09:30:58.809Z,20.80
2023-01-10T09:33:41.441Z,20.28
2023-01-10T09:36:16.079Z,19.76
2023-01-10T09:38:45.547Z,19.29
2023-01-10T09:41:37.498Z,18.84
2023-01-10T09:44:31.695Z,18.63
2023-01-10T09:47:25.213Z,18.43
2023-01-10T09:50:25.352Z,18.30
2023-01-10T09:53:04.959Z,18.19
2023-01-10T09:55:38.422Z,18.00
2023-01-10T09:58:20.704Z,18.12
2023-01-10T10:00:57.875Z,17.61
2023-01-10T10:03:41.356Z,17.72
2023-01-10T10:06:16.437Z,17.74
2023-01-10T10:08:48.050Z,17.76
2023-01-10T10:11:26.941Z,17.22
2023-01-10T10:14:14.954Z,17.11
2023-01-10T10:17:01.137Z,16.87
2023-01-10T10:19:53.271Z,16.63
2023-01-10T10:22:31.898Z,16.40
2023-01-10T10:25:33.419Z,16.39
2023-01-10T10:28:13.476Z,16.29
2023-01-10T10:31:06.261Z,16.13
2023-01-10T10:34:02.157Z,15.81
2023-01-10T10:36:46.064Z,15.70
2023-01-10T10:39:23.866Z,15.14
2023-01-10T10:41:56.572Z,14.53
2023-01-10T10:44:40.611Z,14.47
2023-01-10T10:47:17.016Z,14.24
2023-01-10T10:50:17.469Z,13.57
2023-01-10T10:52:47.572Z,13.38
2023-01-10T10:55:19.992Z,13.47
2023-01-10T10:57:59.871Z,12.99
2023-01-10T11:00:31.665Z,13.01
2023-01-10T11:03:26.211Z,13.24
2023-01-10T11:05:56.411Z,13.54
2023-01-10T11:08:26.285Z,12.92
2023-01-10T11:10:59.203Z,12.90
2023-01-10T11:13:44.161Z,13.42
2023-01-10T11:16:30.332Z,13.58
2023-01-10T11:19:27.381Z,13.90
2023-01-10T11:22:07.732Z,13.75
2023-01-10T11:24:43.172Z,13.57
2023-01-10T11:27:16.765Z,12.99
2023-01-10T11:29:51.745Z,13.10
2023-01-10T11:32:32.619Z,13.17
2023-01-10T11:35:16.977Z,13.08
2023-01-10T11:38:03.050Z,13.47
2023-01-10T11:40:35.382Z,13.58
2023-01-10T11:43:28.732Z,13.71
2023-01-10T11:46:03.204Z,13.40
2023-01-10T11:49:07.299Z,13.10
2023-01-10T11:51:41.403Z,13.02
2023-01-10T11:54:31.902Z,12.93
2023-01-10T11:57:17.456Z,13.05
2023-01-10T11:59:59.623Z,13.19
2023-01-10T12:02:34.339Z,13.23
2023-01-10T12:05:07.486Z,12.84
2023-01-10T12:07:56.705Z,13.03
2023-01-10T12:10:28.942Z,12.86
2023-01-10T12:13:18.325Z,12.55
2023-01-10T12:15:49.828Z,13.15
2023-01-10T12:18:20.494Z,13.01
2023-01-10T12:20:54.842Z,12.84
2023-01-10T12:23:26.757Z,12.62
2023-01-10T12:26:10.712Z,12.93
2023-01-10T12:28:48.717Z,12.91
2023-01-10T12:31:17.570Z,12.58
2023-01-10T12:33:52.049Z,12.78
2023-01-10T12:36:45.582Z,13.33
2023-01-10T12:39:24.323Z,13.17
2023-01-10T12:42:28.475Z,12.44
2023-01-10T12:45:10.825Z,12.35
2023-01-10T12:47:58.335Z,12.58
2023-01-10T12:50:34.039Z,12.44
2023-01-10T12:53:29.659Z,13.04
2023-01-10T12:56:06.862Z,12.90
2023-01-10T12:58:39.839Z,13.06
2023-01-10T13:01:21.028Z,12.89
2023-01-10T13:03:57.155Z,12.68
2023-01-10T13:06:39.351Z,12.60
2023-01-10T13:09:30.327Z,13.10
2023-01-10T13:12:12.012Z,13.33
2023-01-10T13:14:49.441Z,13.62
2023-01-10T13:17:47.617Z,13.49
2023-01-10T13:20:22.687Z,13.71
2023-01-10T13:23:01.742Z,13.68
2023-01-10T13:25:35.360Z,13.21
2023-01-10T13:28:20.712Z,12.69
2023-01-10T13:31:01.617Z,13.09
2023-01-10T13:33:40.697Z,12.87
2023-01-10T13:36:23.564Z,12.49
2023-01-10T13:39:01.944Z,12.44
2023-01-10T13:42:17.701Z,12.05
2023-01-10T13:45:02.691Z,12.43
2023-01-10T13:47:41.253Z,12.84
2023-01-10T13:50:42.554Z,12.82
2023-01-10T13:53:13.596Z,13.38
2023-01-10T13:55:54.094Z,13.48
2023-01-10T13:58:43.996Z,13.55
2023-01-10T14:01:56.104Z,13.87
2023-01-10T14:04:32.642Z,14.24
2023-01-10T14:07:07.832Z,14.11
2023-01-10T14:09:46.022Z,14.53
2023-01-10T14:12:27.515Z,14.70
2023-01-10T14:14:59.893Z,14.89
2023-01-10T14:17:31.940Z,14.52
2023-01-10T14:20:23.348Z,14.72
2023-01-10T14:23:00.624Z,14.93
2023-01-10T14:25:32.393Z,14.80
2023-01-10T14:28:02.003Z,15.32
2023-01-10T14:30:39.012Z,15.28
2023-01-10T14:33:21.846Z,15.42
2023-01-10T14:35:55.459Z,15.53
2023-01-10T14:38:34.750Z,15.93
2023-01-10T14:41:20.509Z,16.17
2023-01-10T14:43:59.911Z,17.32
2023-01-10T14:46:56.703Z,17.36
2023-01-10T14:49:29.924Z,18.00
2023-01-10T14:52:22.719Z,18.27
2023-01-10T14:55:04.253Z,18.41
2023-01-10T14:57:33.768Z,18.72
2023-01-10T15:00:07.093Z,18.81
2023-01-10T15:02:37.890Z,19.21
2023-01-10T15:05:18.196Z,19.54
2023-01-10T15:07:47.593Z,19.24
2023-01-10T15:10:36.098Z,19.41
2023-01-10T15:13:07.112Z,19.59
2023-01-10T15:15:39.241Z,20.00
2023-01-10T15:18:38.170Z,20.08
2023-01-10T15:21:08.385Z,20.43
2023-01-10T15:23:40.085Z,20.68
2023-01-10T15:26:17.553Z,20.79
2023-01-10T15:29:08.648Z,21.57
2023-01-10T15:31:39.134Z,22.08
2023-01-10T15:34:20.678Z,22.61
2023-01-10T15:36:55.777Z,23.52
2023-01-10T15:39:32.741Z,24.93
2023-01-10T15:42:10.934Z,25.96
2023-01-10T15:44:57.747Z,27.02
2023-01-10T15:47:41.944Z,27.70
2023-01-10T15:50:26.688Z,28.92
2023-01-10T15:53:00.379Z,29.97
2023-01-10T15:55:52.757Z,31.08
2023-01-10T15:58:36.758Z,32.04
2023-01-10T16:01:06.367Z,32.97
2023-01-10T16:03:39.002Z,33.79
2023-01-10T16:06:10.500Z,34.16
2023-01-10T16:08:41.431Z,34.64
2023-01-10T16:11:40.910Z,35.09
2023-01-10T16:14:10.333Z,35.46
2023-01-10T16:16:41.519Z,36.25
2023-01-10T16:19:13.296Z,37.45
2023-01-10T16:21:51.413Z,38.35
2023-01-10T16:24:23.773Z,39.44
2023-01-10T16:26:53.308Z,39.74
2023-01-10T16:29:23.478Z,40.14
2023-01-10T16:31:53.873Z,40.57
2023-01-10T16:34:24.401Z,40.88
2023-01-10T16:36:53.703Z,40.99
2023-01-10T16:39:24.563Z,41.02
2023-01-10T16:42:12.488Z,41.07
2023-01-10T16:44:42.152Z,41.56
2023-01-10T16:47:10.854Z,42.33
2023-01-10T16:49:42.383Z,42.54
2023-01-10T16:52:15.444Z,42.81
2023-01-10T16:54:44.086Z,43.21
2023-01-10T16:57:15.685Z,43.69
2023-01-10T16:59:44.816Z,44.11
2023-01-10T17:02:19.625Z,44.23
2023-01-10T17:04:49.536Z,44.46
2023-01-10T17:07:19.057Z,44.67
2023-01-10T17:09:48.512Z,44.89
2023-01-10T17:12:21.086Z,44.73
2023-01-10T17:14:51.032Z,44.86
2023-01-10T17:17:20.642Z,45.30
2023-01-10T17:19:49.874Z,45.80
2023-01-10T17:22:19.373Z,46.28
2023-01-10T17:24:49.050Z,46.56
2023-01-10T17:27:18.334Z,47.23
2023-01-10T17:29:47.566Z,48.31
2023-01-10T17:32:16.652Z,48.74
2023-01-10T17:34:45.662Z,49.23
2023-01-10T17:37:14.950Z,49.64
2023-01-10T17:39:43.977Z,49.69
2023-01-10T17:42:13.367Z,49.96
2023-01-10T17:44:43.035Z,49.99
2023-01-10T17:47:12.453Z,49.36
2023-01-10T17:49:43.047Z,48.94
2023-01-10T17:52:12.922Z,48.96
2023-01-10T17:54:42.148Z,48.76
2023-01-10T17:57:12.722Z,48.42
2023-01-10T17:59:42.549Z,48.45
2023-01-10T18:02:19.183Z,48.68
2023-01-10T18:04:49.121Z,48.64
2023-01-10T18:07:18.734Z,48.46
2023-01-10T18:09:48.270Z,48.40
2023-01-10T18:12:17.257Z,48.51
2023-01-10T18:14:47.368Z,48.81
2023-01-10T18:17:18.387Z,49.05
2023-01-10T18:19:47.820Z,49.07
2023-01-10T18:22:35.117Z,49.56
2023-01-10T18:25:04.884Z,49.63
2023-01-10T18:27:34.235Z,50.19
2023-01-10T18:30:04.717Z,50.28
2023-01-10T18:32:33.648Z,50.76
2023-01-10T18:35:02.481Z,51.02
2023-01-10T18:37:31.692Z,51.31
2023-01-10T18:40:01.715Z,52.53
2023-01-10T18:42:32.091Z,53.70
2023-01-10T18:45:02.189Z,53.77
2023-01-10T18:47:31.200Z,53.89
2023-01-10T18:50:00.381Z,54.62
2023-01-10T18:52:29.477Z,54.76
2023-01-10T18:55:00.913Z,54.76
2023-01-10T18:57:33.102Z,55.05
2023-01-10T19:00:02.420Z,55.26
2023-01-10T19:02:31.937Z,55.50
2023-01-10T19:05:01.602Z,55.57
2023-01-10T19:07:31.111Z,55.50
2023-01-10T19:10:00.418Z,55.30
2023-01-10T19:12:29.183Z,55.33
2023-01-10T19:14:58.453Z,55.15
2023-01-10T19:17:29.650Z,55.38
2023-01-10T19:19:59.328Z,55.64
2023-01-10T19:22:28.779Z,56.15
2023-01-10T19:24:58.031Z,56.50
2023-01-10T19:27:28.374Z,56.55
2023-01-10T19:29:57.789Z,56.55
2023-01-10T19:32:28.240Z,56.63
2023-01-10T19:34:57.888Z,56.60
2023-01-10T19:37:27.382Z,56.28
2023-01-10T19:39:56.448Z,55.36
2023-01-10T19:42:26.643Z,54.60
2023-01-10T19:44:55.973Z,54.37
2023-01-10T19:47:25.177Z,54.09
2023-01-10T19:49:56.061Z,54.16
2023-01-10T19:52:26.394Z,54.18
2023-01-10T19:54:57.748Z,54.93
2023-01-10T19:57:28.833Z,56.06
2023-01-10T20:00:01.094Z,56.27
2023-01-10T20:02:30.976Z,56.15
2023-01-10T20:05:03.851Z,56.54
2023-01-10T20:07:34.000Z,56.85
2023-01-10T20:10:03.419Z,57.43
2023-01-10T20:12:33.641Z,57.67
2023-01-10T20:15:03.500Z,57.95
2023-01-10T20:17:35.383Z,57.93
2023-01-10T20:20:06.362Z,58.34
2023-01-10T20:22:35.796Z,58.24
2023-01-10T20:25:05.912Z,58.46
2023-01-10T20:27:37.308Z,58.76
2023-01-10T20:30:09.107Z,58.69
2023-01-10T20:32:39.794Z,58.63
2023-01-10T20:35:11.721Z,57.89
2023-01-10T20:37:42.342Z,57.84
2023-01-10T20:40:14.464Z,58.31
2023-01-10T20:42:44.989Z,58.85
2023-01-10T20:45:14.596Z,58.78
2023-01-10T20:47:44.049Z,58.75
2023-01-10T20:50:14.037Z,58.56
2023-01-10T20:52:43.347Z,58.53
2023-01-10T20:55:13.244Z,58.92
2023-01-10T20:57:43.446Z,58.99
2023-01-10T21:00:13.786Z,59.18
2023-01-10T21:02:44.710Z,59.03
2023-01-10T21:05:14.618Z,59.15
2023-01-10T21:07:43.504Z,58.98
2023-01-10T21:10:12.604Z,59.48
2023-01-10T21:12:41.946Z,59.67
2023-01-10T21:15:12.588Z,59.37
2023-01-10T21:17:43.675Z,59.56
2023-01-10T21:20:14.090Z,59.18
2023-01-10T21:22:44.759Z,59.57
2023-01-10T21:25:15.092Z,59.81
2023-01-10T21:27:44.410Z,59.95
2023-01-10T21:30:15.669Z,59.72
2023-01-10T21:32:45.754Z,59.62
2023-01-10T21:35:15.205Z,59.49
2023-01-10T21:37:46.279Z,59.42
2023-01-10T21:40:17.619Z,59.30
2023-01-10T21:42:48.045Z,58.97
2023-01-10T21:45:19.498Z,58.70
2023-01-10T21:47:52.933Z,58.70
2023-01-10T21:50:22.620Z,59.07
2023-01-10T21:52:52.496Z,59.37
2023-01-10T21:55:21.848Z,60.06
2023-01-10T21:57:51.256Z,60.12
2023-01-10T22:00:20.867Z,60.47
2023-01-10T22:02:50.425Z,60.77
2023-01-10T22:05:20.466Z,60.77
2023-01-10T22:07:49.659Z,61.25
2023-01-10T22:10:18.960Z,61.19
2023-01-10T22:12:48.266Z,61.06
2023-01-10T22:15:17.472Z,61.00
2023-01-10T22:17:48.647Z,61.20
2023-01-10T22:20:17.789Z,61.25
2023-01-10T22:22:47.118Z,61.05
2023-01-10T22:25:16.122Z,61.20
2023-01-10T22:27:45.505Z,61.23
2023-01-10T22:30:14.245Z,61.46
2023-01-10T22:32:43.131Z,61.71
2023-01-10T22:35:14.976Z,61.86
2023-01-10T22:37:44.323Z,61.78
2023-01-10T22:40:14.462Z,61.75
2023-01-10T22:42:44.427Z,62.07
2023-01-10T22:45:13.773Z,62.04
2023-01-10T22:47:42.860Z,61.68
2023-01-10T22:50:11.843Z,61.31
2023-01-10T22:52:40.537Z,61.13
2023-01-10T22:55:10.002Z,61.58
2023-01-10T22:57:46.759Z,62.09
2023-01-10T23:00:17.644Z,62.29
2023-01-10T23:02:47.307Z,62.03
2023-01-10T23:05:16.323Z,61.87
2023-01-10T23:07:45.702Z,62.02
2023-01-10T23:10:28.845Z,62.02
2023-01-10T23:13:00.393Z,62.15
2023-01-10T23:15:29.949Z,62.05
2023-01-10T23:30:53.515Z,63.47
2023-01-10T23:33:22.719Z,63.56
2023-01-10T23:35:51.578Z,63.93
2023-01-10T23:38:20.390Z,64.08
2023-01-10T23:40:49.108Z,63.61
2023-01-10T23:43:18.056Z,62.65
2023-01-10T23:45:47.509Z,62.46
2023-01-10T23:48:17.233Z,62.28
2023-01-10T23:50:51.446Z,61.83
2023-01-10T23:53:20.666Z,62.06
2023-01-10T23:55:49.360Z,62.33
2023-01-10T23:58:18.457Z,62.25
